Wetterdaten: aktuell Mittwoch, 04.10.2023 02:55
Datum Zeit Temp. A. Feuchte A. Luftdruck Regen Wind Richtung Richtung Windben
04.10.2023 02:55 20,5 C 55 % 1021,9 hPa 0,0 l/m 32,6 km/h N-NO 17 45,1 km/h
04.10.2023 02:50 20,4 C 54 % 1021,7 hPa 0,0 l/m 29,0 km/h N 349 40,2 km/h
04.10.2023 02:45 20,4 C 55 % 1021,6 hPa 0,0 l/m 27,0 km/h N-NW 341 40,2 km/h
04.10.2023 02:40 20,7 C 55 % 1021,6 hPa 0,0 l/m 26,7 km/h N-NW 333 33,8 km/h
04.10.2023 02:35 20,7 C 54 % 1021,6 hPa 0,0 l/m 30,1 km/h N-NW 341 49,9 km/h
04.10.2023 02:30 20,6 C 55 % 1021,5 hPa 0,0 l/m 30,0 km/h N 354 41,8 km/h
04.10.2023 02:25 20,6 C 57 % 1021,5 hPa 0,0 l/m 27,9 km/h NW 322 43,5 km/h
04.10.2023 02:20 20,6 C 57 % 1021,6 hPa 0,0 l/m 25,6 km/h N 7 33,8 km/h
04.10.2023 02:15 20,8 C 56 % 1021,5 hPa 0,0 l/m 34,0 km/h N 349 48,3 km/h
04.10.2023 02:10 20,9 C 57 % 1021,5 hPa 0,0 l/m 30,7 km/h N 355 46,7 km/h
04.10.2023 02:05 20,9 C 57 % 1021,5 hPa 0,0 l/m 34,3 km/h N 7 46,7 km/h
04.10.2023 02:00 20,9 C 58 % 1021,3 hPa 0,0 l/m 25,3 km/h N-NO 21 37,0 km/h
04.10.2023 01:55 21,1 C 59 % 1021,3 hPa 0,0 l/m 25,5 km/h N 7 33,8 km/h
04.10.2023 01:50 21,1 C 59 % 1021,3 hPa 0,0 l/m 28,3 km/h N 358 38,6 km/h
04.10.2023 01:45 21,1 C 60 % 1021,2 hPa 0,0 l/m 25,6 km/h N 353 33,8 km/h
04.10.2023 01:40 21,1 C 61 % 1021,1 hPa 0,0 l/m 23,7 km/h N 360 33,8 km/h
04.10.2023 01:35 21,4 C 61 % 1021,1 hPa 0,0 l/m 21,6 km/h N-NO 23 32,2 km/h
04.10.2023 01:30 21,7 C 60 % 1021,1 hPa 0,0 l/m 25,9 km/h N 350 43,5 km/h
04.10.2023 01:25 21,6 C 61 % 1021,2 hPa 0,0 l/m 27,6 km/h N 7 43,5 km/h
04.10.2023 01:20 21,7 C 64 % 1020,9 hPa 0,0 l/m 27,8 km/h N 349 40,2 km/h
04.10.2023 01:15 20,9 C 68 % 1020,9 hPa 0,0 l/m 25,8 km/h N-NO 17 46,7 km/h
04.10.2023 01:10 18,2 C 80 % 1020,9 hPa 0,0 l/m 19,9 km/h N-NW 343 37,0 km/h
04.10.2023 01:05 15,7 C 67 % 1020,9 hPa 0,0 l/m 2,0 km/h N-NO 12 14,5 km/h
04.10.2023 01:00 15,3 C 66 % 1020,8 hPa 0,0 l/m 0,1 km/h O-NO 75 6,4 km/h
04.10.2023 00:55 15,3 C 65 % 1020,7 hPa 0,0 l/m 0,0 km/h N-NW 337 1,6 km/h
04.10.2023 00:50 15,0 C 66 % 1020,6 hPa 0,0 l/m 0,2 km/h S-SW 192 4,8 km/h
04.10.2023 00:45 15,0 C 67 % 1020,4 hPa 0,0 l/m 0,1 km/h NO 40 4,8 km/h
04.10.2023 00:40 15,0 C 67 % 1020,4 hPa 0,0 l/m 0,0 km/h S-SW 210 0,0 km/h
04.10.2023 00:35 15,0 C 67 % 1020,1 hPa 0,0 l/m 0,0 km/h SW 220 1,6 km/h
04.10.2023 00:30 15,0 C 67 % 1020,0 hPa 0,0 l/m 0,0 km/h W-NW 292 0,0 km/h
04.10.2023 00:25 15,0 C 68 % 1020,0 hPa 0,0 l/m 0,0 km/h SO 129 0,0 km/h
04.10.2023 00:20 14,9 C 70 % 1019,9 hPa 0,0 l/m 0,0 km/h SW 231 0,0 km/h
04.10.2023 00:15 15,0 C 70 % 1019,9 hPa 0,0 l/m 0,0 km/h W-SW 249 0,0 km/h
04.10.2023 00:10 15,1 C 70 % 1019,9 hPa 0,0 l/m 0,0 km/h N-NW 343 0,0 km/h
04.10.2023 00:05 15,2 C 69 % 1019,9 hPa 0,0 l/m 0,0 km/h N-NW 343 0,0 km/h
04.10.2023 00:00 15,3 C 70 % 1019,9 hPa 0,0 l/m 0,0 km/h N-NW 343 0,0 km/h
03.10.2023 23:55 15,3 C 70 % 1019,9 hPa 0,0 l/m 0,0 km/h N-NW 343 0,0 km/h
03.10.2023 23:50 15,4 C 71 % 1019,9 hPa 0,0 l/m 0,0 km/h N-NW 343 0,0 km/h
03.10.2023 23:45 15,6 C 70 % 1019,9 hPa 0,0 l/m 0,0 km/h N-NW 343 0,0 km/h
03.10.2023 23:40 15,7 C 69 % 1020,0 hPa 0,0 l/m 0,0 km/h N-NW 343 0,0 km/h
03.10.2023 23:35 15,7 C 69 % 1019,9 hPa 0,0 l/m 0,0 km/h N-NW 343 0,0 km/h
03.10.2023 23:30 15,6 C 70 % 1020,0 hPa 0,0 l/m 0,0 km/h N-NW 343 0,0 km/h
03.10.2023 23:25 15,5 C 71 % 1019,9 hPa 0,0 l/m 0,0 km/h N-NW 344 0,0 km/h
03.10.2023 23:20 15,6 C 71 % 1020,0 hPa 0,0 l/m 0,0 km/h N-NW 344 0,0 km/h
03.10.2023 23:15 15,5 C 73 % 1019,9 hPa 0,0 l/m 0,0 km/h N-NW 344 0,0 km/h
03.10.2023 23:10 15,7 C 73 % 1019,9 hPa 0,0 l/m 0,0 km/h N-NW 344 0,0 km/h
03.10.2023 23:05 15,9 C 72 % 1019,7 hPa 0,0 l/m 0,0 km/h W 262 0,0 km/h
03.10.2023 23:00 15,7 C 75 % 1019,7 hPa 0,0 l/m 0,0 km/h S 171 0,0 km/h
03.10.2023 22:55 15,8 C 75 % 1019,7 hPa 0,0 l/m 0,0 km/h SW 225 0,0 km/h
03.10.2023 22:50 16,0 C 75 % 1019,6 hPa 0,0 l/m 0,0 km/h SW 225 0,0 km/h
03.10.2023 22:45 16,1 C 75 % 1019,6 hPa 0,0 l/m 0,0 km/h SW 225 0,0 km/h
03.10.2023 22:40 16,2 C 76 % 1019,5 hPa 0,0 l/m 0,0 km/h SW 225 0,0 km/h
03.10.2023 22:35 16,3 C 76 % 1019,6 hPa 0,0 l/m 0,0 km/h SW 225 0,0 km/h
03.10.2023 22:30 16,4 C 77 % 1019,6 hPa 0,0 l/m 0,0 km/h SW 225 0,0 km/h
03.10.2023 22:25 16,6 C 77 % 1019,6 hPa 0,0 l/m 0,0 km/h O 95 0,0 km/h
03.10.2023 22:20 16,8 C 76 % 1019,7 hPa 0,0 l/m 0,0 km/h O 95 0,0 km/h
03.10.2023 22:15 16,7 C 74 % 1019,7 hPa 0,0 l/m 0,0 km/h N-NO 33 0,0 km/h
03.10.2023 22:10 16,6 C 74 % 1019,9 hPa 0,0 l/m 0,0 km/h N-NW 328 0,0 km/h
03.10.2023 22:05 16,3 C 76 % 1019,9 hPa 0,0 l/m 0,0 km/h N-NW 337 0,0 km/h
03.10.2023 22:00 16,5 C 77 % 1019,9 hPa 0,0 l/m 0,0 km/h N-NW 344 0,0 km/h
03.10.2023 21:55 16,7 C 77 % 1019,6 hPa 0,0 l/m 0,0 km/h N 1 0,0 km/h
03.10.2023 21:50 16,8 C 77 % 1019,6 hPa 0,0 l/m 0,0 km/h N 1 0,0 km/h
03.10.2023 21:45 16,9 C 77 % 1019,5 hPa 0,0 l/m 0,0 km/h N 1 0,0 km/h
03.10.2023 21:40 17,0 C 78 % 1019,5 hPa 0,0 l/m 0,0 km/h N 1 0,0 km/h
03.10.2023 21:35 17,1 C 78 % 1019,4 hPa 0,0 l/m 0,0 km/h N 1 0,0 km/h
03.10.2023 21:30 17,2 C 77 % 1019,4 hPa 0,0 l/m 0,0 km/h N 1 0,0 km/h
03.10.2023 21:25 17,2 C 77 % 1019,4 hPa 0,0 l/m 0,0 km/h N 1 0,0 km/h
03.10.2023 21:20 17,2 C 78 % 1019,4 hPa 0,0 l/m 0,0 km/h N 1 0,0 km/h
03.10.2023 21:15 17,2 C 78 % 1019,4 hPa 0,0 l/m 0,0 km/h N 1 0,0 km/h
03.10.2023 21:10 17,2 C 78 % 1019,3 hPa 0,0 l/m 0,0 km/h N 1 0,0 km/h
03.10.2023 21:05 17,2 C 78 % 1019,2 hPa 0,0 l/m 0,0 km/h N 360 0,0 km/h
03.10.2023 21:00 17,3 C 78 % 1019,2 hPa 0,0 l/m 0,0 km/h N 7 0,0 km/h
03.10.2023 20:55 17,3 C 77 % 1019,2 hPa 0,0 l/m 0,0 km/h N-NO 12 0,0 km/h
03.10.2023 20:50 17,3 C 77 % 1019,2 hPa 0,0 l/m 0,0 km/h N 7 1,6 km/h
03.10.2023 20:45 17,2 C 77 % 1019,2 hPa 0,0 l/m 0,0 km/h N 7 0,0 km/h
03.10.2023 20:40 17,2 C 77 % 1019,2 hPa 0,0 l/m 0,0 km/h N 350 0,0 km/h
03.10.2023 20:35 17,2 C 77 % 1019,2 hPa 0,0 l/m 0,0 km/h N 354 0,0 km/h
03.10.2023 20:30 17,3 C 77 % 1019,2 hPa 0,0 l/m 0,0 km/h N-NW 340 1,6 km/h
03.10.2023 20:25 17,3 C 78 % 1019,2 hPa 0,0 l/m 0,0 km/h N 356 0,0 km/h
03.10.2023 20:20 17,4 C 78 % 1019,2 hPa 0,0 l/m 0,0 km/h N 7 0,0 km/h
03.10.2023 20:15 17,3 C 77 % 1019,1 hPa 0,0 l/m 0,0 km/h N 357 0,0 km/h
03.10.2023 20:10 17,3 C 77 % 1019,2 hPa 0,0 l/m 0,0 km/h N 7 0,0 km/h
03.10.2023 20:05 17,3 C 77 % 1019,2 hPa 0,0 l/m 0,0 km/h N 3 0,0 km/h
03.10.2023 20:00 17,3 C 77 % 1019,3 hPa 0,0 l/m 0,0 km/h N 353 0,0 km/h
03.10.2023 19:55 17,3 C 78 % 1019,3 hPa 0,0 l/m 0,0 km/h N 356 0,0 km/h
03.10.2023 19:50 17,4 C 78 % 1019,2 hPa 0,0 l/m 0,0 km/h N 2 0,0 km/h
03.10.2023 19:45 17,4 C 78 % 1019,2 hPa 0,0 l/m 0,0 km/h N 354 1,6 km/h
03.10.2023 19:40 17,4 C 78 % 1019,1 hPa 0,0 l/m 0,0 km/h N-NW 345 0,0 km/h
03.10.2023 19:35 17,5 C 78 % 1019,1 hPa 0,0 l/m 0,0 km/h N 358 0,0 km/h
03.10.2023 19:30 17,6 C 78 % 1019,1 hPa 0,0 l/m 0,0 km/h N 354 0,0 km/h
03.10.2023 19:25 17,6 C 78 % 1019,1 hPa 0,0 l/m 0,0 km/h N 352 0,0 km/h
03.10.2023 19:20 17,7 C 78 % 1019,1 hPa 0,0 l/m 0,0 km/h N 7 0,0 km/h
03.10.2023 19:15 17,7 C 78 % 1019,1 hPa 0,0 l/m 0,0 km/h N 352 0,0 km/h
03.10.2023 19:10 17,8 C 78 % 1019,1 hPa 0,0 l/m 0,0 km/h N-NW 348 0,0 km/h
03.10.2023 19:05 17,9 C 78 % 1019,1 hPa 0,0 l/m 0,0 km/h N 351 0,0 km/h
03.10.2023 19:00 18,0 C 78 % 1019,0 hPa 0,0 l/m 0,0 km/h N 350 0,0 km/h
03.10.2023 18:55 18,1 C 78 % 1019,1 hPa 0,0 l/m 0,0 km/h N-NW 345 0,0 km/h
_ Min-Zeit 07:30 02:35 15:40 - 03:00 - - 03:00
Minimum _ 11,0 C 54 % 1018,7 hPa - 0,0 km/h - - 0,0 km/h
_ Max-Zeit 13:45 10:35 03:00 08:20 02:05 - - 02:35
Maximum _ 24,3 C 80 % 1022,8 hPa 0,2 l/m 34,3 km/h
N
- - 49,9 km/h
N-NW
Durchschnitt _ 17,3 C 69 % 1020,4 hPa #0,2 l/m 2,0 km/h N - 3,0 km/h